createdAt,value
2018-08-12T00:03:06.695Z,13.00
2018-08-12T00:09:11.894Z,13.00
2018-08-12T00:15:20.049Z,12.80
2018-08-12T00:21:24.740Z,12.60
2018-08-12T00:27:30.197Z,12.60
2018-08-12T00:33:35.565Z,12.50
2018-08-12T00:39:40.354Z,12.30
2018-08-12T00:45:45.367Z,12.20
2018-08-12T00:51:50.240Z,12.00
2018-08-12T00:57:54.984Z,11.90
2018-08-12T01:04:01.796Z,11.90
2018-08-12T01:10:08.530Z,11.80
2018-08-12T01:16:13.516Z,11.80
2018-08-12T01:22:18.350Z,11.80
2018-08-12T01:28:23.465Z,11.80
2018-08-12T01:34:28.233Z,11.70
2018-08-12T01:40:33.617Z,11.70
2018-08-12T01:46:38.484Z,11.60
2018-08-12T01:52:43.869Z,11.60
2018-08-12T01:58:49.492Z,11.60
2018-08-12T02:04:54.219Z,11.50
2018-08-12T02:10:59.607Z,11.40
2018-08-12T02:17:05.472Z,11.40
2018-08-12T02:23:11.031Z,11.30
2018-08-12T02:29:15.886Z,11.20
2018-08-12T02:35:21.006Z,11.10
2018-08-12T02:41:26.209Z,11.00
2018-08-12T02:47:34.077Z,11.00
2018-08-12T02:53:39.528Z,10.90
2018-08-12T02:59:44.608Z,10.90
2018-08-12T03:05:49.578Z,10.80
2018-08-12T03:11:54.721Z,10.70
2018-08-12T03:17:59.770Z,10.70
2018-08-12T03:24:06.152Z,10.60
2018-08-12T03:30:11.731Z,10.60
2018-08-12T03:36:17.002Z,10.60
2018-08-12T03:42:22.439Z,10.50
2018-08-12T03:48:27.328Z,10.50
2018-08-12T03:54:33.268Z,10.50
2018-08-12T04:00:38.776Z,10.40
2018-08-12T04:06:43.754Z,10.40
2018-08-12T04:12:48.862Z,10.50
2018-08-12T04:18:54.237Z,10.50
2018-08-12T04:24:59.312Z,10.60
2018-08-12T04:31:05.296Z,10.70
2018-08-12T04:37:10.293Z,10.70
2018-08-12T04:43:15.560Z,10.80
2018-08-12T04:49:20.931Z,10.90
2018-08-12T04:55:25.950Z,10.90
2018-08-12T05:01:32.828Z,11.00
2018-08-12T05:07:38.247Z,11.10
2018-08-12T05:13:43.880Z,11.30
2018-08-12T05:19:49.572Z,11.40
2018-08-12T05:25:54.917Z,11.50
2018-08-12T05:32:00.503Z,11.80
2018-08-12T05:38:06.086Z,12.00
2018-08-12T05:44:11.751Z,12.20
2018-08-12T05:50:17.417Z,12.40
2018-08-12T05:56:22.642Z,12.60
2018-08-12T06:02:27.786Z,12.90
2018-08-12T06:08:33.680Z,13.20
2018-08-12T06:14:38.937Z,13.50
2018-08-12T06:20:43.992Z,13.80
2018-08-12T06:26:48.823Z,14.30
2018-08-12T06:32:54.017Z,14.50
2018-08-12T06:38:59.165Z,14.80
2018-08-12T06:45:07.862Z,14.90
2018-08-12T06:51:12.644Z,15.20
2018-08-12T06:57:18.105Z,15.50
2018-08-12T07:03:23.548Z,15.60
2018-08-12T07:09:29.410Z,16.10
2018-08-12T07:15:35.538Z,16.50
2018-08-12T07:21:40.408Z,16.90
2018-08-12T07:27:45.306Z,17.40
2018-08-12T07:33:50.372Z,17.80
2018-08-12T07:39:55.139Z,18.30
2018-08-12T07:46:00.597Z,18.80
2018-08-12T07:52:05.511Z,19.40
2018-08-12T07:58:10.208Z,19.70
2018-08-12T08:04:15.165Z,20.10
2018-08-12T08:10:20.203Z,20.80
2018-08-12T08:16:25.101Z,21.50
2018-08-12T08:22:31.229Z,21.70
2018-08-12T08:28:37.037Z,21.80
2018-08-12T08:34:42.411Z,22.00
2018-08-12T08:40:47.085Z,22.20
2018-08-12T08:46:52.041Z,22.50
2018-08-12T08:52:56.857Z,22.40
2018-08-12T08:59:04.954Z,22.70
2018-08-12T09:05:12.340Z,23.00
2018-08-12T09:11:17.430Z,23.00
2018-08-12T09:17:22.961Z,23.50
2018-08-12T09:23:28.150Z,23.80
2018-08-12T09:29:34.863Z,24.50
2018-08-12T09:35:39.907Z,24.80
2018-08-12T09:41:44.617Z,24.60
2018-08-12T09:47:49.449Z,25.20
2018-08-12T09:53:54.331Z,25.20
2018-08-12T09:59:59.758Z,25.00
2018-08-12T10:06:05.557Z,25.30
2018-08-12T10:12:10.906Z,25.20
2018-08-12T10:18:16.027Z,25.60
2018-08-12T10:24:21.414Z,25.60
2018-08-12T10:30:26.167Z,26.20
2018-08-12T10:36:32.446Z,26.50
2018-08-12T10:42:37.634Z,26.80
2018-08-12T10:48:42.401Z,27.00
2018-08-12T10:54:47.358Z,27.50
2018-08-12T11:00:52.579Z,27.70
2018-08-12T11:06:58.119Z,28.20
2018-08-12T11:13:04.279Z,28.20
2018-08-12T11:19:09.094Z,28.70
2018-08-12T11:25:14.007Z,29.20
2018-08-12T11:31:18.943Z,29.40
2018-08-12T11:37:23.692Z,31.00
2018-08-12T11:43:29.102Z,30.80
2018-08-12T11:49:34.389Z,30.10
2018-08-12T11:55:39.303Z,30.30
2018-08-12T12:01:44.058Z,30.90
2018-08-12T12:07:49.261Z,31.50
2018-08-12T12:13:54.280Z,30.80
2018-08-12T12:19:59.120Z,31.80
2018-08-12T12:26:05.356Z,32.00
2018-08-12T12:32:10.080Z,33.40
2018-08-12T12:38:15.071Z,34.80
2018-08-12T12:44:20.129Z,35.20
2018-08-12T12:50:25.341Z,34.80
2018-08-12T12:56:30.869Z,35.90
2018-08-12T13:02:36.476Z,35.40
2018-08-12T13:08:41.494Z,34.00
2018-08-12T13:14:46.260Z,34.50
2018-08-12T13:20:51.018Z,33.90
2018-08-12T13:26:55.872Z,34.10
2018-08-12T13:33:01.990Z,33.60
2018-08-12T13:39:11.484Z,34.20
2018-08-12T13:45:17.049Z,35.10
2018-08-12T13:51:22.140Z,33.90
2018-08-12T13:57:26.983Z,33.20
2018-08-12T14:03:34.394Z,33.90
2018-08-12T14:09:39.355Z,33.50
2018-08-12T14:15:44.127Z,33.20
2018-08-12T14:21:48.890Z,34.20
2018-08-12T14:27:53.749Z,34.10
2018-08-12T14:33:58.569Z,34.80
2018-08-12T14:40:04.090Z,34.70
2018-08-12T14:46:08.898Z,34.70
2018-08-12T14:52:13.833Z,35.20
2018-08-12T14:58:18.746Z,33.90
2018-08-12T15:04:23.547Z,33.40
2018-08-12T15:10:29.231Z,33.00
2018-08-12T15:16:35.412Z,33.10
2018-08-12T15:22:40.905Z,34.10
2018-08-12T15:28:45.719Z,35.50
2018-08-12T15:34:50.758Z,36.30
2018-08-12T15:40:55.526Z,34.80
2018-08-12T15:47:01.117Z,33.70
2018-08-12T15:53:06.273Z,32.80
2018-08-12T15:59:11.016Z,32.70
2018-08-12T16:05:15.948Z,32.90
2018-08-12T16:11:20.934Z,32.40
2018-08-12T16:17:26.012Z,31.10
2018-08-12T16:23:31.212Z,31.30
2018-08-12T16:29:36.116Z,30.80
2018-08-12T16:35:40.843Z,30.30
2018-08-12T16:41:45.664Z,29.70
2018-08-12T16:47:50.356Z,30.10
2018-08-12T16:53:55.469Z,31.30
2018-08-12T17:00:01.137Z,32.40
2018-08-12T17:06:06.013Z,33.40
2018-08-12T17:12:10.738Z,33.40
2018-08-12T17:18:15.657Z,32.90
2018-08-12T17:24:20.479Z,32.00
2018-08-12T17:30:25.237Z,31.20
2018-08-12T17:36:30.473Z,30.30
2018-08-12T17:42:35.442Z,29.70
2018-08-12T17:48:40.152Z,29.20
2018-08-12T17:54:44.926Z,28.40
2018-08-12T18:00:49.771Z,27.40
2018-08-12T18:06:54.540Z,27.00
2018-08-12T18:12:59.378Z,27.00
2018-08-12T18:19:04.376Z,26.60
2018-08-12T18:25:11.064Z,26.00
2018-08-12T18:31:15.803Z,25.50
2018-08-12T18:37:20.928Z,24.90
2018-08-12T18:43:26.074Z,24.20
2018-08-12T18:49:31.434Z,23.50
2018-08-12T18:55:36.600Z,23.10
2018-08-12T19:01:41.471Z,22.70
2018-08-12T19:07:46.819Z,22.40
2018-08-12T19:13:51.610Z,22.20
2018-08-12T19:19:56.635Z,22.00
2018-08-12T19:26:04.407Z,21.70
2018-08-12T19:32:09.200Z,21.50
2018-08-12T19:38:14.760Z,21.30
2018-08-12T19:44:19.514Z,21.10
2018-08-12T19:50:24.416Z,20.90
2018-08-12T19:56:30.514Z,20.70
2018-08-12T20:02:35.391Z,20.60
2018-08-12T20:08:40.218Z,20.50
2018-08-12T20:14:45.077Z,20.50
2018-08-12T20:20:49.881Z,20.50
2018-08-12T20:26:54.885Z,20.50
2018-08-12T20:32:59.667Z,20.50
2018-08-12T20:39:08.737Z,20.50
2018-08-12T20:45:13.686Z,20.50
2018-08-12T20:51:18.723Z,20.50
2018-08-12T20:57:23.479Z,20.40
2018-08-12T21:03:28.295Z,20.30
2018-08-12T21:09:33.125Z,20.30
2018-08-12T21:15:38.017Z,20.20
2018-08-12T21:21:42.884Z,20.20
2018-08-12T21:27:47.581Z,20.10
2018-08-12T21:33:52.276Z,20.00
2018-08-12T21:39:56.974Z,19.90
2018-08-12T21:46:02.399Z,19.70
2018-08-12T21:52:07.228Z,19.50
2018-08-12T21:58:11.976Z,19.40
2018-08-12T22:04:16.776Z,19.10
2018-08-12T22:10:21.766Z,19.00
2018-08-12T22:16:26.791Z,18.90
2018-08-12T22:22:32.370Z,18.90
2018-08-12T22:28:37.262Z,18.80
2018-08-12T22:34:42.994Z,18.70
2018-08-12T22:40:48.006Z,18.70
2018-08-12T22:46:52.799Z,18.50
2018-08-12T22:52:57.491Z,18.30
2018-08-12T22:59:03.214Z,18.20
2018-08-12T23:05:08.422Z,18.00
2018-08-12T23:11:13.364Z,17.70
2018-08-12T23:17:18.379Z,17.40
2018-08-12T23:23:23.713Z,17.30
2018-08-12T23:29:29.371Z,17.20
2018-08-12T23:35:34.273Z,17.10
2018-08-12T23:41:39.101Z,17.10
2018-08-12T23:47:43.941Z,17.00
2018-08-12T23:53:49.032Z,17.00
2018-08-12T23:59:53.711Z,16.90
